sensor_id;sensor_type;location;lat;lon;timestamp;temperature;humidity
6443;DHT22;3254;47.372;8.512;2023-08-12T00:01:39;19.40;1.00
6443;DHT22;3254;47.372;8.512;2023-08-12T00:04:05;19.40;1.00
6443;DHT22;3254;47.372;8.512;2023-08-12T00:06:31;19.40;1.00
6443;DHT22;3254;47.372;8.512;2023-08-12T00:08:56;19.50;1.00
6443;DHT22;3254;47.372;8.512;2023-08-12T00:11:22;19.40;1.00
6443;DHT22;3254;47.372;8.512;2023-08-12T00:13:47;19.40;1.00
6443;DHT22;3254;47.372;8.512;2023-08-12T00:16:13;19.40;1.00
6443;DHT22;3254;47.372;8.512;2023-08-12T00:18:38;19.30;1.00
6443;DHT22;3254;47.372;8.512;2023-08-12T00:21:07;19.30;1.00
6443;DHT22;3254;47.372;8.512;2023-08-12T00:23:40;19.30;1.00
6443;DHT22;3254;47.372;8.512;2023-08-12T00:26:07;19.30;1.00
6443;DHT22;3254;47.372;8.512;2023-08-12T00:28:33;19.30;1.00
6443;DHT22;3254;47.372;8.512;2023-08-12T00:30:59;19.40;1.00
6443;DHT22;3254;47.372;8.512;2023-08-12T00:33:24;19.40;1.00
6443;DHT22;3254;47.372;8.512;2023-08-12T00:35:52;19.40;1.00
6443;DHT22;3254;47.372;8.512;2023-08-12T00:38:18;19.40;1.00
6443;DHT22;3254;47.372;8.512;2023-08-12T00:40:44;19.40;1.00
6443;DHT22;3254;47.372;8.512;2023-08-12T00:43:09;19.40;1.00
6443;DHT22;3254;47.372;8.512;2023-08-12T00:45:36;19.40;1.00
6443;DHT22;3254;47.372;8.512;2023-08-12T00:48:03;19.30;1.00
6443;DHT22;3254;47.372;8.512;2023-08-12T00:50:30;19.30;1.00
6443;DHT22;3254;47.372;8.512;2023-08-12T00:52:55;19.30;1.00
6443;DHT22;3254;47.372;8.512;2023-08-12T00:55:21;19.20;1.00
6443;DHT22;3254;47.372;8.512;2023-08-12T00:57:47;19.30;1.00
6443;DHT22;3254;47.372;8.512;2023-08-12T01:00:14;19.40;1.00
6443;DHT22;3254;47.372;8.512;2023-08-12T01:02:42;19.50;1.00
6443;DHT22;3254;47.372;8.512;2023-08-12T01:05:11;19.60;1.00
6443;DHT22;3254;47.372;8.512;2023-08-12T01:07:37;19.50;1.00
6443;DHT22;3254;47.372;8.512;2023-08-12T01:10:02;19.40;1.00
6443;DHT22;3254;47.372;8.512;2023-08-12T01:12:37;19.30;1.00
6443;DHT22;3254;47.372;8.512;2023-08-12T01:15:20;19.20;1.00
6443;DHT22;3254;47.372;8.512;2023-08-12T01:17:49;19.10;1.00
6443;DHT22;3254;47.372;8.512;2023-08-12T01:20:19;19.00;1.00
6443;DHT22;3254;47.372;8.512;2023-08-12T01:23:15;19.00;1.00
6443;DHT22;3254;47.372;8.512;2023-08-12T01:25:42;19.00;1.00
6443;DHT22;3254;47.372;8.512;2023-08-12T01:28:08;19.00;1.00
6443;DHT22;3254;47.372;8.512;2023-08-12T01:31:00;19.00;1.00
6443;DHT22;3254;47.372;8.512;2023-08-12T01:36:20;19.10;1.00
6443;DHT22;3254;47.372;8.512;2023-08-12T01:38:48;19.20;1.00
6443;DHT22;3254;47.372;8.512;2023-08-12T01:41:16;19.20;1.00
6443;DHT22;3254;47.372;8.512;2023-08-12T01:43:45;19.20;1.00
6443;DHT22;3254;47.372;8.512;2023-08-12T01:46:12;19.30;1.00
6443;DHT22;3254;47.372;8.512;2023-08-12T01:48:41;19.30;1.00
6443;DHT22;3254;47.372;8.512;2023-08-12T01:51:08;19.30;1.00
6443;DHT22;3254;47.372;8.512;2023-08-12T01:53:34;19.30;1.00
6443;DHT22;3254;47.372;8.512;2023-08-12T01:55:59;19.30;1.00
6443;DHT22;3254;47.372;8.512;2023-08-12T01:58:25;19.40;1.00
6443;DHT22;3254;47.372;8.512;2023-08-12T02:00:53;19.40;1.00
6443;DHT22;3254;47.372;8.512;2023-08-12T02:03:19;19.40;1.00
6443;DHT22;3254;47.372;8.512;2023-08-12T02:05:44;19.40;1.00
6443;DHT22;3254;47.372;8.512;2023-08-12T02:08:10;19.40;1.00
6443;DHT22;3254;47.372;8.512;2023-08-12T02:10:35;19.30;1.00
6443;DHT22;3254;47.372;8.512;2023-08-12T02:13:02;19.30;1.00
6443;DHT22;3254;47.372;8.512;2023-08-12T02:15:28;19.30;1.00
6443;DHT22;3254;47.372;8.512;2023-08-12T02:17:55;19.20;1.00
6443;DHT22;3254;47.372;8.512;2023-08-12T02:20:22;19.20;1.00
6443;DHT22;3254;47.372;8.512;2023-08-12T02:22:49;19.20;1.00
6443;DHT22;3254;47.372;8.512;2023-08-12T02:25:15;19.20;1.00
6443;DHT22;3254;47.372;8.512;2023-08-12T02:27:40;19.10;1.00
6443;DHT22;3254;47.372;8.512;2023-08-12T02:30:07;19.10;1.00
6443;DHT22;3254;47.372;8.512;2023-08-12T02:32:32;19.10;1.00
6443;DHT22;3254;47.372;8.512;2023-08-12T02:34:58;19.10;1.00
6443;DHT22;3254;47.372;8.512;2023-08-12T02:37:23;19.10;1.00
6443;DHT22;3254;47.372;8.512;2023-08-12T02:39:49;19.10;1.00
6443;DHT22;3254;47.372;8.512;2023-08-12T02:42:18;19.10;1.00
6443;DHT22;3254;47.372;8.512;2023-08-12T02:44:46;19.00;1.00
6443;DHT22;3254;47.372;8.512;2023-08-12T02:47:13;19.00;1.00
6443;DHT22;3254;47.372;8.512;2023-08-12T02:49:39;19.00;1.00
6443;DHT22;3254;47.372;8.512;2023-08-12T02:52:08;19.00;1.00
6443;DHT22;3254;47.372;8.512;2023-08-12T02:54:34;19.00;1.00
6443;DHT22;3254;47.372;8.512;2023-08-12T02:57:00;19.00;1.00
6443;DHT22;3254;47.372;8.512;2023-08-12T02:59:27;19.00;1.00
6443;DHT22;3254;47.372;8.512;2023-08-12T03:01:54;19.10;1.00
6443;DHT22;3254;47.372;8.512;2023-08-12T03:04:19;19.00;1.00
6443;DHT22;3254;47.372;8.512;2023-08-12T03:06:45;18.90;1.00
6443;DHT22;3254;47.372;8.512;2023-08-12T03:09:11;18.90;1.00
6443;DHT22;3254;47.372;8.512;2023-08-12T03:11:36;19.00;1.00
6443;DHT22;3254;47.372;8.512;2023-08-12T03:14:02;19.00;1.00
6443;DHT22;3254;47.372;8.512;2023-08-12T03:16:27;19.00;1.00
6443;DHT22;3254;47.372;8.512;2023-08-12T03:18:54;19.00;1.00
6443;DHT22;3254;47.372;8.512;2023-08-12T03:21:20;18.90;1.00
6443;DHT22;3254;47.372;8.512;2023-08-12T03:23:45;18.90;1.00
6443;DHT22;3254;47.372;8.512;2023-08-12T03:26:11;19.00;1.00
6443;DHT22;3254;47.372;8.512;2023-08-12T03:28:37;19.00;1.00
6443;DHT22;3254;47.372;8.512;2023-08-12T03:31:02;19.00;1.00
6443;DHT22;3254;47.372;8.512;2023-08-12T03:33:28;19.00;1.00
6443;DHT22;3254;47.372;8.512;2023-08-12T03:35:53;19.00;1.00
6443;DHT22;3254;47.372;8.512;2023-08-12T03:38:20;19.00;1.00
6443;DHT22;3254;47.372;8.512;2023-08-12T03:40:46;19.00;1.00
6443;DHT22;3254;47.372;8.512;2023-08-12T03:43:12;19.00;1.00
6443;DHT22;3254;47.372;8.512;2023-08-12T03:45:44;19.10;1.00
6443;DHT22;3254;47.372;8.512;2023-08-12T03:48:10;19.00;1.00
6443;DHT22;3254;47.372;8.512;2023-08-12T03:50:42;19.00;1.00
6443;DHT22;3254;47.372;8.512;2023-08-12T03:53:08;19.00;1.00
6443;DHT22;3254;47.372;8.512;2023-08-12T03:55:34;19.00;1.00
6443;DHT22;3254;47.372;8.512;2023-08-12T03:58:01;19.00;1.00
6443;DHT22;3254;47.372;8.512;2023-08-12T04:00:27;19.00;1.00
6443;DHT22;3254;47.372;8.512;2023-08-12T04:02:54;19.10;1.00
6443;DHT22;3254;47.372;8.512;2023-08-12T04:05:19;19.10;1.00
6443;DHT22;3254;47.372;8.512;2023-08-12T04:07:45;19.20;1.00
6443;DHT22;3254;47.372;8.512;2023-08-12T04:10:10;19.10;1.00
6443;DHT22;3254;47.372;8.512;2023-08-12T04:12:36;19.10;1.00
6443;DHT22;3254;47.372;8.512;2023-08-12T04:15:02;19.10;1.00
6443;DHT22;3254;47.372;8.512;2023-08-12T04:17:30;19.20;1.00
6443;DHT22;3254;47.372;8.512;2023-08-12T04:19:55;19.30;1.00
6443;DHT22;3254;47.372;8.512;2023-08-12T04:22:22;19.20;1.00
6443;DHT22;3254;47.372;8.512;2023-08-12T04:24:49;19.30;1.00
6443;DHT22;3254;47.372;8.512;2023-08-12T04:27:15;19.20;1.00
6443;DHT22;3254;47.372;8.512;2023-08-12T04:29:46;19.20;1.00
6443;DHT22;3254;47.372;8.512;2023-08-12T04:32:12;19.20;1.00
6443;DHT22;3254;47.372;8.512;2023-08-12T04:34:38;19.20;1.00
6443;DHT22;3254;47.372;8.512;2023-08-12T04:37:04;19.30;1.00
6443;DHT22;3254;47.372;8.512;2023-08-12T04:39:30;19.30;1.00
6443;DHT22;3254;47.372;8.512;2023-08-12T04:41:57;19.30;1.00
6443;DHT22;3254;47.372;8.512;2023-08-12T04:44:23;19.30;1.00
6443;DHT22;3254;47.372;8.512;2023-08-12T04:46:48;19.30;1.00
6443;DHT22;3254;47.372;8.512;2023-08-12T04:49:15;19.40;1.00
6443;DHT22;3254;47.372;8.512;2023-08-12T04:51:42;19.50;1.00
6443;DHT22;3254;47.372;8.512;2023-08-12T04:54:07;19.60;1.00
6443;DHT22;3254;47.372;8.512;2023-08-12T04:56:33;19.70;1.00
6443;DHT22;3254;47.372;8.512;2023-08-12T04:58:59;19.70;1.00
6443;DHT22;3254;47.372;8.512;2023-08-12T05:01:24;19.70;1.00
6443;DHT22;3254;47.372;8.512;2023-08-12T05:03:50;19.80;1.00
6443;DHT22;3254;47.372;8.512;2023-08-12T05:06:16;19.80;1.00
6443;DHT22;3254;47.372;8.512;2023-08-12T05:08:41;19.80;1.00
6443;DHT22;3254;47.372;8.512;2023-08-12T05:11:07;19.90;1.00
6443;DHT22;3254;47.372;8.512;2023-08-12T05:13:33;20.00;1.00
6443;DHT22;3254;47.372;8.512;2023-08-12T05:15:59;20.20;1.00
6443;DHT22;3254;47.372;8.512;2023-08-12T05:18:24;20.30;1.00
6443;DHT22;3254;47.372;8.512;2023-08-12T05:20:52;20.30;1.00
6443;DHT22;3254;47.372;8.512;2023-08-12T05:23:19;20.30;1.00
6443;DHT22;3254;47.372;8.512;2023-08-12T05:25:45;20.30;1.00
6443;DHT22;3254;47.372;8.512;2023-08-12T05:28:11;20.30;1.00
6443;DHT22;3254;47.372;8.512;2023-08-12T05:30:37;20.30;1.00
6443;DHT22;3254;47.372;8.512;2023-08-12T05:33:03;20.20;1.00
6443;DHT22;3254;47.372;8.512;2023-08-12T05:35:32;20.20;1.00
6443;DHT22;3254;47.372;8.512;2023-08-12T05:37:58;20.20;1.00
6443;DHT22;3254;47.372;8.512;2023-08-12T05:40:24;20.30;1.00
6443;DHT22;3254;47.372;8.512;2023-08-12T05:42:49;20.30;1.00
6443;DHT22;3254;47.372;8.512;2023-08-12T05:45:15;20.50;1.00
6443;DHT22;3254;47.372;8.512;2023-08-12T05:47:41;20.60;1.00
6443;DHT22;3254;47.372;8.512;2023-08-12T05:50:06;20.70;1.00
6443;DHT22;3254;47.372;8.512;2023-08-12T05:52:33;20.70;1.00
6443;DHT22;3254;47.372;8.512;2023-08-12T05:54:58;20.70;1.00
6443;DHT22;3254;47.372;8.512;2023-08-12T05:57:24;20.70;1.00
6443;DHT22;3254;47.372;8.512;2023-08-12T05:59:49;20.80;1.00
6443;DHT22;3254;47.372;8.512;2023-08-12T06:02:15;20.70;1.00
6443;DHT22;3254;47.372;8.512;2023-08-12T06:04:43;20.70;1.00
6443;DHT22;3254;47.372;8.512;2023-08-12T06:07:09;20.70;1.00
6443;DHT22;3254;47.372;8.512;2023-08-12T06:09:35;20.60;1.00
6443;DHT22;3254;47.372;8.512;2023-08-12T06:12:02;20.50;1.00
6443;DHT22;3254;47.372;8.512;2023-08-12T06:14:28;20.50;1.00
6443;DHT22;3254;47.372;8.512;2023-08-12T06:16:54;20.50;1.00
6443;DHT22;3254;47.372;8.512;2023-08-12T06:19:19;20.50;1.00
6443;DHT22;3254;47.372;8.512;2023-08-12T06:21:45;20.60;1.00
6443;DHT22;3254;47.372;8.512;2023-08-12T06:24:10;20.70;1.00
6443;DHT22;3254;47.372;8.512;2023-08-12T06:26:36;20.80;1.00
6443;DHT22;3254;47.372;8.512;2023-08-12T06:29:02;21.10;1.00
6443;DHT22;3254;47.372;8.512;2023-08-12T06:31:27;21.30;1.00
6443;DHT22;3254;47.372;8.512;2023-08-12T06:33:53;21.40;1.00
6443;DHT22;3254;47.372;8.512;2023-08-12T06:36:18;21.60;1.00
6443;DHT22;3254;47.372;8.512;2023-08-12T06:38:44;21.70;1.00
6443;DHT22;3254;47.372;8.512;2023-08-12T06:41:12;21.80;1.00
6443;DHT22;3254;47.372;8.512;2023-08-12T06:43:37;21.90;1.00
6443;DHT22;3254;47.372;8.512;2023-08-12T06:46:03;22.00;1.00
6443;DHT22;3254;47.372;8.512;2023-08-12T06:48:29;22.20;1.00
6443;DHT22;3254;47.372;8.512;2023-08-12T06:50:55;22.40;1.00
6443;DHT22;3254;47.372;8.512;2023-08-12T06:53:21;22.60;1.00
6443;DHT22;3254;47.372;8.512;2023-08-12T06:55:46;23.00;1.00
6443;DHT22;3254;47.372;8.512;2023-08-12T06:58:14;23.40;1.00
6443;DHT22;3254;47.372;8.512;2023-08-12T07:00:40;23.90;1.00
6443;DHT22;3254;47.372;8.512;2023-08-12T07:03:06;24.40;1.00
6443;DHT22;3254;47.372;8.512;2023-08-12T07:05:31;24.70;1.00
6443;DHT22;3254;47.372;8.512;2023-08-12T07:07:57;25.00;1.00
6443;DHT22;3254;47.372;8.512;2023-08-12T07:10:22;25.30;1.00
6443;DHT22;3254;47.372;8.512;2023-08-12T07:12:48;25.50;1.00
6443;DHT22;3254;47.372;8.512;2023-08-12T07:15:13;25.80;1.00
6443;DHT22;3254;47.372;8.512;2023-08-12T07:17:39;25.80;1.00
6443;DHT22;3254;47.372;8.512;2023-08-12T07:20:06;26.00;1.00
6443;DHT22;3254;47.372;8.512;2023-08-12T07:22:31;26.20;1.00
6443;DHT22;3254;47.372;8.512;2023-08-12T07:24:57;26.00;1.00
6443;DHT22;3254;47.372;8.512;2023-08-12T07:27:26;25.40;1.00
6443;DHT22;3254;47.372;8.512;2023-08-12T07:29:52;25.10;1.00
6443;DHT22;3254;47.372;8.512;2023-08-12T07:32:18;25.30;1.00
6443;DHT22;3254;47.372;8.512;2023-08-12T07:34:44;25.40;1.00
6443;DHT22;3254;47.372;8.512;2023-08-12T07:37:10;25.50;1.00
6443;DHT22;3254;47.372;8.512;2023-08-12T07:39:36;25.50;1.00
6443;DHT22;3254;47.372;8.512;2023-08-12T07:42:01;25.50;1.00
6443;DHT22;3254;47.372;8.512;2023-08-12T07:44:27;25.60;1.00
6443;DHT22;3254;47.372;8.512;2023-08-12T07:46:54;26.10;1.00
6443;DHT22;3254;47.372;8.512;2023-08-12T07:49:19;26.40;1.00
6443;DHT22;3254;47.372;8.512;2023-08-12T07:51:45;26.80;1.00
6443;DHT22;3254;47.372;8.512;2023-08-12T07:54:14;26.70;1.00
6443;DHT22;3254;47.372;8.512;2023-08-12T07:56:40;26.40;1.00
6443;DHT22;3254;47.372;8.512;2023-08-12T07:59:08;26.40;1.00
6443;DHT22;3254;47.372;8.512;2023-08-12T08:01:33;26.40;1.00
6443;DHT22;3254;47.372;8.512;2023-08-12T08:03:59;26.80;1.00
6443;DHT22;3254;47.372;8.512;2023-08-12T08:06:24;27.30;1.00
6443;DHT22;3254;47.372;8.512;2023-08-12T08:08:50;28.20;1.00
6443;DHT22;3254;47.372;8.512;2023-08-12T08:11:16;28.70;1.00
6443;DHT22;3254;47.372;8.512;2023-08-12T08:13:43;29.60;1.00
6443;DHT22;3254;47.372;8.512;2023-08-12T08:16:09;30.50;1.00
6443;DHT22;3254;47.372;8.512;2023-08-12T08:18:36;31.20;1.00
6443;DHT22;3254;47.372;8.512;2023-08-12T08:21:02;31.20;1.00
6443;DHT22;3254;47.372;8.512;2023-08-12T08:23:28;31.50;1.00
6443;DHT22;3254;47.372;8.512;2023-08-12T08:25:54;31.80;1.00
6443;DHT22;3254;47.372;8.512;2023-08-12T08:28:20;32.40;1.00
6443;DHT22;3254;47.372;8.512;2023-08-12T08:30:45;33.40;1.00
6443;DHT22;3254;47.372;8.512;2023-08-12T08:33:11;34.10;1.00
6443;DHT22;3254;47.372;8.512;2023-08-12T08:35:36;34.80;1.00
6443;DHT22;3254;47.372;8.512;2023-08-12T08:38:02;35.40;1.00
6443;DHT22;3254;47.372;8.512;2023-08-12T08:40:28;35.70;1.00
6443;DHT22;3254;47.372;8.512;2023-08-12T08:42:54;35.80;1.00
6443;DHT22;3254;47.372;8.512;2023-08-12T08:45:21;35.50;1.00
6443;DHT22;3254;47.372;8.512;2023-08-12T08:47:49;35.10;1.00
6443;DHT22;3254;47.372;8.512;2023-08-12T08:50:17;34.30;1.00
6443;DHT22;3254;47.372;8.512;2023-08-12T08:52:43;33.70;1.00
6443;DHT22;3254;47.372;8.512;2023-08-12T08:55:12;33.40;1.00
6443;DHT22;3254;47.372;8.512;2023-08-12T08:57:39;33.40;1.00
6443;DHT22;3254;47.372;8.512;2023-08-12T09:00:07;33.30;1.00
6443;DHT22;3254;47.372;8.512;2023-08-12T09:02:36;34.20;1.00
6443;DHT22;3254;47.372;8.512;2023-08-12T09:05:03;34.00;1.00
6443;DHT22;3254;47.372;8.512;2023-08-12T09:07:31;32.80;1.00
6443;DHT22;3254;47.372;8.512;2023-08-12T09:09:58;30.30;1.00
6443;DHT22;3254;47.372;8.512;2023-08-12T09:12:25;27.90;1.00
6443;DHT22;3254;47.372;8.512;2023-08-12T09:14:51;26.80;1.00
6443;DHT22;3254;47.372;8.512;2023-08-12T09:17:19;26.00;1.00
6443;DHT22;3254;47.372;8.512;2023-08-12T09:19:44;25.60;1.00
6443;DHT22;3254;47.372;8.512;2023-08-12T09:22:10;25.50;1.00
6443;DHT22;3254;47.372;8.512;2023-08-12T09:24:35;25.50;1.00
6443;DHT22;3254;47.372;8.512;2023-08-12T09:27:01;25.40;1.00
6443;DHT22;3254;47.372;8.512;2023-08-12T09:29:36;25.20;1.00
6443;DHT22;3254;47.372;8.512;2023-08-12T09:32:18;24.90;1.00
6443;DHT22;3254;47.372;8.512;2023-08-12T09:34:48;24.90;1.00
6443;DHT22;3254;47.372;8.512;2023-08-12T09:37:14;24.90;1.00
6443;DHT22;3254;47.372;8.512;2023-08-12T09:39:42;25.10;1.00
6443;DHT22;3254;47.372;8.512;2023-08-12T09:42:08;25.40;1.00
6443;DHT22;3254;47.372;8.512;2023-08-12T09:44:40;25.50;1.00
6443;DHT22;3254;47.372;8.512;2023-08-12T09:47:08;25.60;1.00
6443;DHT22;3254;47.372;8.512;2023-08-12T09:49:34;25.40;1.00
6443;DHT22;3254;47.372;8.512;2023-08-12T09:52:01;25.10;1.00
6443;DHT22;3254;47.372;8.512;2023-08-12T09:54:28;25.00;1.00
6443;DHT22;3254;47.372;8.512;2023-08-12T09:57:00;25.60;1.00
6443;DHT22;3254;47.372;8.512;2023-08-12T09:59:31;26.30;1.00
6443;DHT22;3254;47.372;8.512;2023-08-12T10:01:58;26.70;1.00
6443;DHT22;3254;47.372;8.512;2023-08-12T10:04:39;26.80;1.00
6443;DHT22;3254;47.372;8.512;2023-08-12T10:07:11;26.80;1.00
6443;DHT22;3254;47.372;8.512;2023-08-12T10:09:41;26.80;1.00
6443;DHT22;3254;47.372;8.512;2023-08-12T10:12:11;26.70;1.00
6443;DHT22;3254;47.372;8.512;2023-08-12T10:14:38;26.80;1.00
6443;DHT22;3254;47.372;8.512;2023-08-12T10:17:04;26.80;1.00
6443;DHT22;3254;47.372;8.512;2023-08-12T10:19:31;26.60;1.00
6443;DHT22;3254;47.372;8.512;2023-08-12T10:21:58;26.70;1.00
6443;DHT22;3254;47.372;8.512;2023-08-12T10:24:26;27.00;1.00
6443;DHT22;3254;47.372;8.512;2023-08-12T10:26:53;27.00;1.00
6443;DHT22;3254;47.372;8.512;2023-08-12T10:29:22;27.30;1.00
6443;DHT22;3254;47.372;8.512;2023-08-12T10:31:49;27.60;1.00
6443;DHT22;3254;47.372;8.512;2023-08-12T10:34:23;27.90;1.00
6443;DHT22;3254;47.372;8.512;2023-08-12T10:36:54;29.00;1.00
6443;DHT22;3254;47.372;8.512;2023-08-12T10:39:28;30.10;1.00
6443;DHT22;3254;47.372;8.512;2023-08-12T10:41:59;30.40;1.00
6443;DHT22;3254;47.372;8.512;2023-08-12T10:44:39;30.40;1.00
6443;DHT22;3254;47.372;8.512;2023-08-12T10:47:08;29.70;1.00
6443;DHT22;3254;47.372;8.512;2023-08-12T10:49:47;28.80;1.00
6443;DHT22;3254;47.372;8.512;2023-08-12T10:52:30;28.00;1.00
6443;DHT22;3254;47.372;8.512;2023-08-12T10:55:25;27.60;1.00
6443;DHT22;3254;47.372;8.512;2023-08-12T10:57:53;27.40;1.00
6443;DHT22;3254;47.372;8.512;2023-08-12T11:00:23;27.00;1.00
6443;DHT22;3254;47.372;8.512;2023-08-12T11:02:50;26.50;1.00
6443;DHT22;3254;47.372;8.512;2023-08-12T11:05:17;25.80;1.00
6443;DHT22;3254;47.372;8.512;2023-08-12T11:08:07;25.00;1.00
6443;DHT22;3254;47.372;8.512;2023-08-12T11:10:33;24.00;1.00
6443;DHT22;3254;47.372;8.512;2023-08-12T11:12:59;23.00;1.00
6443;DHT22;3254;47.372;8.512;2023-08-12T11:15:43;21.70;1.00
6443;DHT22;3254;47.372;8.512;2023-08-12T11:18:19;20.90;31.80
6443;DHT22;3254;47.372;8.512;2023-08-12T11:20:45;20.50;53.90
6443;DHT22;3254;47.372;8.512;2023-08-12T11:23:12;20.40;89.20
6443;DHT22;3254;47.372;8.512;2023-08-12T11:25:40;20.40;99.90
6443;DHT22;3254;47.372;8.512;2023-08-12T11:28:06;20.60;99.90
6443;DHT22;3254;47.372;8.512;2023-08-12T11:30:32;20.90;99.90
6443;DHT22;3254;47.372;8.512;2023-08-12T11:33:00;21.20;99.90
6443;DHT22;3254;47.372;8.512;2023-08-12T11:35:25;21.60;99.90
6443;DHT22;3254;47.372;8.512;2023-08-12T11:37:53;21.70;99.90
6443;DHT22;3254;47.372;8.512;2023-08-12T11:40:21;21.90;99.90
6443;DHT22;3254;47.372;8.512;2023-08-12T11:42:49;22.00;99.90
6443;DHT22;3254;47.372;8.512;2023-08-12T11:45:17;22.10;99.90
6443;DHT22;3254;47.372;8.512;2023-08-12T11:47:43;22.30;98.90
6443;DHT22;3254;47.372;8.512;2023-08-12T11:50:11;22.50;76.40
6443;DHT22;3254;47.372;8.512;2023-08-12T11:52:37;23.00;68.30
6443;DHT22;3254;47.372;8.512;2023-08-12T11:55:07;23.70;42.80
6443;DHT22;3254;47.372;8.512;2023-08-12T11:57:33;24.30;1.60
6443;DHT22;3254;47.372;8.512;2023-08-12T12:00:05;25.50;1.00
6443;DHT22;3254;47.372;8.512;2023-08-12T12:02:45;25.40;1.00
6443;DHT22;3254;47.372;8.512;2023-08-12T12:05:11;25.50;1.00
6443;DHT22;3254;47.372;8.512;2023-08-12T12:07:37;25.70;1.00
6443;DHT22;3254;47.372;8.512;2023-08-12T12:10:04;26.10;1.00
6443;DHT22;3254;47.372;8.512;2023-08-12T12:12:37;27.00;1.00
6443;DHT22;3254;47.372;8.512;2023-08-12T12:15:03;28.00;1.00
6443;DHT22;3254;47.372;8.512;2023-08-12T12:17:30;29.10;1.00
6443;DHT22;3254;47.372;8.512;2023-08-12T12:20:00;30.00;1.00
6443;DHT22;3254;47.372;8.512;2023-08-12T12:22:30;29.60;1.00
6443;DHT22;3254;47.372;8.512;2023-08-12T12:25:09;30.00;1.00
6443;DHT22;3254;47.372;8.512;2023-08-12T12:27:37;30.40;1.00
6443;DHT22;3254;47.372;8.512;2023-08-12T12:30:04;32.20;1.00
6443;DHT22;3254;47.372;8.512;2023-08-12T12:32:29;34.00;1.00
6443;DHT22;3254;47.372;8.512;2023-08-12T12:34:56;34.70;1.00
6443;DHT22;3254;47.372;8.512;2023-08-12T12:37:23;34.90;1.00
6443;DHT22;3254;47.372;8.512;2023-08-12T12:39:50;35.30;1.00
6443;DHT22;3254;47.372;8.512;2023-08-12T12:42:15;36.30;1.00
6443;DHT22;3254;47.372;8.512;2023-08-12T12:44:41;36.40;1.00
6443;DHT22;3254;47.372;8.512;2023-08-12T12:47:06;36.70;1.00
6443;DHT22;3254;47.372;8.512;2023-08-12T12:49:32;36.60;1.00
6443;DHT22;3254;47.372;8.512;2023-08-12T12:51:59;36.90;1.00
6443;DHT22;3254;47.372;8.512;2023-08-12T12:54:24;37.20;1.00
6443;DHT22;3254;47.372;8.512;2023-08-12T12:56:50;37.30;1.00
6443;DHT22;3254;47.372;8.512;2023-08-12T12:59:17;37.80;1.00
6443;DHT22;3254;47.372;8.512;2023-08-12T13:01:43;37.50;1.00
6443;DHT22;3254;47.372;8.512;2023-08-12T13:04:08;37.50;1.00
6443;DHT22;3254;47.372;8.512;2023-08-12T13:06:35;37.30;1.00
6443;DHT22;3254;47.372;8.512;2023-08-12T13:09:01;36.90;1.00
6443;DHT22;3254;47.372;8.512;2023-08-12T13:11:27;37.00;1.00
6443;DHT22;3254;47.372;8.512;2023-08-12T13:13:53;36.60;1.00
6443;DHT22;3254;47.372;8.512;2023-08-12T13:16:39;36.80;1.00
6443;DHT22;3254;47.372;8.512;2023-08-12T13:19:25;36.90;1.00
6443;DHT22;3254;47.372;8.512;2023-08-12T13:21:50;37.20;1.00
6443;DHT22;3254;47.372;8.512;2023-08-12T13:24:16;37.80;1.00
6443;DHT22;3254;47.372;8.512;2023-08-12T13:26:41;38.30;1.00
6443;DHT22;3254;47.372;8.512;2023-08-12T13:29:07;39.40;1.00
6443;DHT22;3254;47.372;8.512;2023-08-12T13:31:33;40.70;1.00
6443;DHT22;3254;47.372;8.512;2023-08-12T13:33:58;41.20;1.00
6443;DHT22;3254;47.372;8.512;2023-08-12T13:36:24;42.00;1.00
6443;DHT22;3254;47.372;8.512;2023-08-12T13:38:49;42.20;1.00
6443;DHT22;3254;47.372;8.512;2023-08-12T13:41:15;41.70;1.00
6443;DHT22;3254;47.372;8.512;2023-08-12T13:43:41;41.00;1.00
6443;DHT22;3254;47.372;8.512;2023-08-12T13:46:07;42.00;1.00
6443;DHT22;3254;47.372;8.512;2023-08-12T13:48:32;40.50;1.00
6443;DHT22;3254;47.372;8.512;2023-08-12T13:50:58;38.90;1.00
6443;DHT22;3254;47.372;8.512;2023-08-12T13:53:23;38.70;1.00
6443;DHT22;3254;47.372;8.512;2023-08-12T13:55:50;38.20;1.00
6443;DHT22;3254;47.372;8.512;2023-08-12T13:58:16;37.60;1.00
6443;DHT22;3254;47.372;8.512;2023-08-12T14:00:41;37.50;1.00
6443;DHT22;3254;47.372;8.512;2023-08-12T14:03:08;37.20;1.00
6443;DHT22;3254;47.372;8.512;2023-08-12T14:05:34;37.30;1.00
6443;DHT22;3254;47.372;8.512;2023-08-12T14:07:59;37.60;1.00
6443;DHT22;3254;47.372;8.512;2023-08-12T14:10:26;39.00;1.00
6443;DHT22;3254;47.372;8.512;2023-08-12T14:12:56;39.80;1.00
6443;DHT22;3254;47.372;8.512;2023-08-12T14:15:21;39.30;1.00
6443;DHT22;3254;47.372;8.512;2023-08-12T14:17:47;39.20;1.00
6443;DHT22;3254;47.372;8.512;2023-08-12T14:20:14;40.40;1.00
6443;DHT22;3254;47.372;8.512;2023-08-12T14:22:41;41.00;1.00
6443;DHT22;3254;47.372;8.512;2023-08-12T14:25:09;39.90;1.00
6443;DHT22;3254;47.372;8.512;2023-08-12T14:27:36;39.00;1.00
6443;DHT22;3254;47.372;8.512;2023-08-12T14:30:03;38.20;1.00
6443;DHT22;3254;47.372;8.512;2023-08-12T14:32:29;37.90;1.00
6443;DHT22;3254;47.372;8.512;2023-08-12T14:34:55;37.50;1.00
6443;DHT22;3254;47.372;8.512;2023-08-12T14:37:22;35.70;1.00
6443;DHT22;3254;47.372;8.512;2023-08-12T14:39:47;35.30;1.00
6443;DHT22;3254;47.372;8.512;2023-08-12T14:42:13;35.20;1.00
6443;DHT22;3254;47.372;8.512;2023-08-12T14:44:39;35.30;1.00
6443;DHT22;3254;47.372;8.512;2023-08-12T14:47:05;35.20;1.00
6443;DHT22;3254;47.372;8.512;2023-08-12T14:49:30;35.50;1.00
6443;DHT22;3254;47.372;8.512;2023-08-12T14:51:56;36.30;1.00
6443;DHT22;3254;47.372;8.512;2023-08-12T14:54:22;37.10;1.00
6443;DHT22;3254;47.372;8.512;2023-08-12T14:56:48;37.80;1.00
6443;DHT22;3254;47.372;8.512;2023-08-12T14:59:15;38.60;1.00
6443;DHT22;3254;47.372;8.512;2023-08-12T15:01:41;39.50;1.00
6443;DHT22;3254;47.372;8.512;2023-08-12T15:04:08;39.50;1.00
6443;DHT22;3254;47.372;8.512;2023-08-12T15:06:34;40.10;1.00
6443;DHT22;3254;47.372;8.512;2023-08-12T15:09:00;40.00;1.00
6443;DHT22;3254;47.372;8.512;2023-08-12T15:11:27;39.50;1.00
6443;DHT22;3254;47.372;8.512;2023-08-12T15:13:54;39.50;1.00
6443;DHT22;3254;47.372;8.512;2023-08-12T15:16:21;40.30;1.00
6443;DHT22;3254;47.372;8.512;2023-08-12T15:18:46;40.10;1.00
6443;DHT22;3254;47.372;8.512;2023-08-12T15:21:12;40.10;1.00
6443;DHT22;3254;47.372;8.512;2023-08-12T15:23:38;39.10;1.00
6443;DHT22;3254;47.372;8.512;2023-08-12T15:26:04;39.10;1.00
6443;DHT22;3254;47.372;8.512;2023-08-12T15:28:31;39.30;1.00
6443;DHT22;3254;47.372;8.512;2023-08-12T15:30:56;39.40;1.00
6443;DHT22;3254;47.372;8.512;2023-08-12T15:33:22;39.40;1.00
6443;DHT22;3254;47.372;8.512;2023-08-12T15:35:47;39.40;1.00
6443;DHT22;3254;47.372;8.512;2023-08-12T15:38:14;39.50;1.00
6443;DHT22;3254;47.372;8.512;2023-08-12T15:40:39;40.00;1.00
6443;DHT22;3254;47.372;8.512;2023-08-12T15:43:06;39.80;1.00
6443;DHT22;3254;47.372;8.512;2023-08-12T15:45:32;38.30;1.00
6443;DHT22;3254;47.372;8.512;2023-08-12T15:47:57;37.90;1.00
6443;DHT22;3254;47.372;8.512;2023-08-12T15:50:23;37.40;1.00
6443;DHT22;3254;47.372;8.512;2023-08-12T15:52:48;38.20;1.00
6443;DHT22;3254;47.372;8.512;2023-08-12T15:55:15;38.80;1.00
6443;DHT22;3254;47.372;8.512;2023-08-12T15:57:41;38.20;1.00
6443;DHT22;3254;47.372;8.512;2023-08-12T16:00:09;38.40;1.00
6443;DHT22;3254;47.372;8.512;2023-08-12T16:02:36;38.00;1.00
6443;DHT22;3254;47.372;8.512;2023-08-12T16:05:02;37.30;1.00
6443;DHT22;3254;47.372;8.512;2023-08-12T16:07:28;37.20;1.00
6443;DHT22;3254;47.372;8.512;2023-08-12T16:09:54;37.00;1.00
6443;DHT22;3254;47.372;8.512;2023-08-12T16:12:19;37.10;1.00
6443;DHT22;3254;47.372;8.512;2023-08-12T16:14:45;36.40;1.00
6443;DHT22;3254;47.372;8.512;2023-08-12T16:17:12;35.50;1.00
6443;DHT22;3254;47.372;8.512;2023-08-12T16:19:39;34.20;1.00